sensor_id;sensor_type;location;lat;lon;timestamp;P1;durP1;ratioP1;P2;durP2;ratioP2
78296;SDS011;67555;47.660;19.622;2023-07-31T00:01:55;2.80;;;2.47;;
78296;SDS011;67555;47.660;19.622;2023-07-31T00:04:21;4.47;;;2.55;;
78296;SDS011;67555;47.660;19.622;2023-07-31T00:06:48;3.90;;;2.10;;
78296;SDS011;67555;47.660;19.622;2023-07-31T00:09:13;3.25;;;2.35;;
78296;SDS011;67555;47.660;19.622;2023-07-31T00:11:39;2.83;;;2.10;;
78296;SDS011;67555;47.660;19.622;2023-07-31T00:14:04;3.50;;;2.05;;
78296;SDS011;67555;47.660;19.622;2023-07-31T00:16:30;2.42;;;1.88;;
78296;SDS011;67555;47.660;19.622;2023-07-31T00:18:56;3.95;;;2.35;;
78296;SDS011;67555;47.660;19.622;2023-07-31T00:21:22;8.27;;;2.33;;
78296;SDS011;67555;47.660;19.622;2023-07-31T00:23:47;4.88;;;1.90;;
78296;SDS011;67555;47.660;19.622;2023-07-31T00:26:13;5.43;;;2.60;;
78296;SDS011;67555;47.660;19.622;2023-07-31T00:28:39;2.55;;;2.03;;
78296;SDS011;67555;47.660;19.622;2023-07-31T00:31:05;5.50;;;2.10;;
78296;SDS011;67555;47.660;19.622;2023-07-31T00:33:31;2.42;;;2.08;;
78296;SDS011;67555;47.660;19.622;2023-07-31T00:35:57;2.70;;;2.05;;
78296;SDS011;67555;47.660;19.622;2023-07-31T00:38:23;4.13;;;2.22;;
78296;SDS011;67555;47.660;19.622;2023-07-31T00:40:48;5.18;;;2.25;;
78296;SDS011;67555;47.660;19.622;2023-07-31T00:43:14;2.40;;;1.73;;
78296;SDS011;67555;47.660;19.622;2023-07-31T00:45:40;2.10;;;1.83;;
78296;SDS011;67555;47.660;19.622;2023-07-31T00:48:06;2.50;;;2.10;;
78296;SDS011;67555;47.660;19.622;2023-07-31T00:50:32;1.65;;;1.55;;
78296;SDS011;67555;47.660;19.622;2023-07-31T00:52:59;2.85;;;2.00;;
78296;SDS011;67555;47.660;19.622;2023-07-31T00:55:25;2.63;;;1.88;;
78296;SDS011;67555;47.660;19.622;2023-07-31T00:57:51;2.35;;;1.90;;
78296;SDS011;67555;47.660;19.622;2023-07-31T01:00:18;2.55;;;1.60;;
78296;SDS011;67555;47.660;19.622;2023-07-31T01:02:44;3.47;;;1.90;;
78296;SDS011;67555;47.660;19.622;2023-07-31T01:05:10;3.10;;;1.73;;
78296;SDS011;67555;47.660;19.622;2023-07-31T01:07:56;3.85;;;2.17;;
78296;SDS011;67555;47.660;19.622;2023-07-31T01:10:35;1.70;;;1.60;;
78296;SDS011;67555;47.660;19.622;2023-07-31T01:13:10;6.22;;;2.20;;
78296;SDS011;67555;47.660;19.622;2023-07-31T01:15:36;2.42;;;1.90;;
78296;SDS011;67555;47.660;19.622;2023-07-31T01:18:03;4.43;;;2.45;;
78296;SDS011;67555;47.660;19.622;2023-07-31T01:20:29;3.55;;;2.13;;
78296;SDS011;67555;47.660;19.622;2023-07-31T01:27:59;1.90;;;1.52;;
78296;SDS011;67555;47.660;19.622;2023-07-31T01:30:29;1.80;;;1.70;;
78296;SDS011;67555;47.660;19.622;2023-07-31T01:33:01;3.88;;;2.05;;
78296;SDS011;67555;47.660;19.622;2023-07-31T01:35:35;2.17;;;1.75;;
78296;SDS011;67555;47.660;19.622;2023-07-31T01:38:02;5.30;;;2.20;;
78296;SDS011;67555;47.660;19.622;2023-07-31T01:40:28;2.35;;;1.90;;
78296;SDS011;67555;47.660;19.622;2023-07-31T01:42:54;4.80;;;1.98;;
78296;SDS011;67555;47.660;19.622;2023-07-31T01:45:19;4.20;;;2.13;;
78296;SDS011;67555;47.660;19.622;2023-07-31T01:47:45;1.60;;;1.40;;
78296;SDS011;67555;47.660;19.622;2023-07-31T01:50:11;3.67;;;1.90;;
78296;SDS011;67555;47.660;19.622;2023-07-31T01:52:37;2.50;;;2.05;;
78296;SDS011;67555;47.660;19.622;2023-07-31T01:55:02;2.97;;;1.88;;
78296;SDS011;67555;47.660;19.622;2023-07-31T01:57:28;3.83;;;1.90;;
78296;SDS011;67555;47.660;19.622;2023-07-31T01:59:54;3.22;;;2.40;;
78296;SDS011;67555;47.660;19.622;2023-07-31T02:02:20;5.65;;;2.25;;
78296;SDS011;67555;47.660;19.622;2023-07-31T02:04:48;3.53;;;1.92;;
78296;SDS011;67555;47.660;19.622;2023-07-31T02:07:15;2.50;;;1.80;;
78296;SDS011;67555;47.660;19.622;2023-07-31T02:09:40;2.40;;;1.88;;
78296;SDS011;67555;47.660;19.622;2023-07-31T02:12:06;2.72;;;1.98;;
78296;SDS011;67555;47.660;19.622;2023-07-31T02:14:33;2.35;;;1.77;;
78296;SDS011;67555;47.660;19.622;2023-07-31T02:17:02;2.40;;;1.83;;
78296;SDS011;67555;47.660;19.622;2023-07-31T02:19:28;2.80;;;1.65;;
78296;SDS011;67555;47.660;19.622;2023-07-31T02:21:54;4.22;;;1.75;;
78296;SDS011;67555;47.660;19.622;2023-07-31T02:24:19;2.10;;;1.70;;
78296;SDS011;67555;47.660;19.622;2023-07-31T02:26:45;2.15;;;1.65;;
78296;SDS011;67555;47.660;19.622;2023-07-31T02:29:11;2.33;;;1.98;;
78296;SDS011;67555;47.660;19.622;2023-07-31T02:31:37;3.03;;;2.03;;
78296;SDS011;67555;47.660;19.622;2023-07-31T02:34:02;2.55;;;1.80;;
78296;SDS011;67555;47.660;19.622;2023-07-31T02:36:28;2.53;;;1.95;;
78296;SDS011;67555;47.660;19.622;2023-07-31T02:38:54;2.83;;;1.90;;
78296;SDS011;67555;47.660;19.622;2023-07-31T02:41:20;4.65;;;1.83;;
78296;SDS011;67555;47.660;19.622;2023-07-31T02:43:46;2.95;;;1.80;;
78296;SDS011;67555;47.660;19.622;2023-07-31T02:46:11;2.75;;;2.20;;
78296;SDS011;67555;47.660;19.622;2023-07-31T02:48:37;2.30;;;1.80;;
78296;SDS011;67555;47.660;19.622;2023-07-31T02:51:03;3.13;;;2.05;;
78296;SDS011;67555;47.660;19.622;2023-07-31T02:53:29;3.03;;;1.80;;
78296;SDS011;67555;47.660;19.622;2023-07-31T02:55:54;3.22;;;2.03;;
78296;SDS011;67555;47.660;19.622;2023-07-31T02:58:20;3.30;;;1.85;;
78296;SDS011;67555;47.660;19.622;2023-07-31T03:00:46;3.60;;;1.88;;
78296;SDS011;67555;47.660;19.622;2023-07-31T03:03:11;2.58;;;1.85;;
78296;SDS011;67555;47.660;19.622;2023-07-31T03:05:37;2.40;;;1.70;;
78296;SDS011;67555;47.660;19.622;2023-07-31T03:08:03;3.25;;;1.70;;
78296;SDS011;67555;47.660;19.622;2023-07-31T03:10:29;2.67;;;1.95;;
78296;SDS011;67555;47.660;19.622;2023-07-31T03:12:54;1.80;;;1.60;;
78296;SDS011;67555;47.660;19.622;2023-07-31T03:15:20;2.15;;;1.95;;
78296;SDS011;67555;47.660;19.622;2023-07-31T03:17:46;3.65;;;1.95;;
78296;SDS011;67555;47.660;19.622;2023-07-31T03:20:12;1.73;;;1.50;;
78296;SDS011;67555;47.660;19.622;2023-07-31T03:22:37;2.60;;;1.88;;
78296;SDS011;67555;47.660;19.622;2023-07-31T03:25:03;2.92;;;2.15;;
78296;SDS011;67555;47.660;19.622;2023-07-31T03:27:29;2.47;;;2.08;;
78296;SDS011;67555;47.660;19.622;2023-07-31T03:29:55;3.53;;;1.77;;
78296;SDS011;67555;47.660;19.622;2023-07-31T03:32:20;2.25;;;1.77;;
78296;SDS011;67555;47.660;19.622;2023-07-31T03:34:46;2.60;;;1.73;;
78296;SDS011;67555;47.660;19.622;2023-07-31T03:37:12;2.67;;;2.00;;
78296;SDS011;67555;47.660;19.622;2023-07-31T03:39:37;3.05;;;1.73;;
78296;SDS011;67555;47.660;19.622;2023-07-31T03:42:03;2.40;;;1.83;;
78296;SDS011;67555;47.660;19.622;2023-07-31T03:44:29;2.45;;;1.80;;
78296;SDS011;67555;47.660;19.622;2023-07-31T03:46:55;2.28;;;1.80;;
78296;SDS011;67555;47.660;19.622;2023-07-31T03:49:21;2.08;;;1.88;;
78296;SDS011;67555;47.660;19.622;2023-07-31T03:51:46;2.58;;;1.92;;
78296;SDS011;67555;47.660;19.622;2023-07-31T03:54:12;4.30;;;2.08;;
78296;SDS011;67555;47.660;19.622;2023-07-31T03:56:39;3.15;;;1.90;;
78296;SDS011;67555;47.660;19.622;2023-07-31T03:59:04;5.45;;;2.45;;
78296;SDS011;67555;47.660;19.622;2023-07-31T04:01:30;3.00;;;1.92;;
78296;SDS011;67555;47.660;19.622;2023-07-31T04:03:56;3.28;;;2.30;;
78296;SDS011;67555;47.660;19.622;2023-07-31T04:06:21;3.72;;;1.80;;
78296;SDS011;67555;47.660;19.622;2023-07-31T04:08:47;3.33;;;2.00;;
78296;SDS011;67555;47.660;19.622;2023-07-31T04:11:13;2.40;;;1.95;;
78296;SDS011;67555;47.660;19.622;2023-07-31T04:13:38;2.47;;;1.75;;
78296;SDS011;67555;47.660;19.622;2023-07-31T04:16:05;3.25;;;2.00;;
78296;SDS011;67555;47.660;19.622;2023-07-31T04:18:31;2.78;;;1.92;;
78296;SDS011;67555;47.660;19.622;2023-07-31T04:20:57;2.67;;;2.10;;
78296;SDS011;67555;47.660;19.622;2023-07-31T04:23:24;4.43;;;2.78;;
78296;SDS011;67555;47.660;19.622;2023-07-31T04:25:51;2.97;;;2.10;;
78296;SDS011;67555;47.660;19.622;2023-07-31T04:28:17;2.80;;;2.13;;
78296;SDS011;67555;47.660;19.622;2023-07-31T04:30:42;2.20;;;1.92;;
78296;SDS011;67555;47.660;19.622;2023-07-31T04:33:08;2.80;;;2.28;;
78296;SDS011;67555;47.660;19.622;2023-07-31T04:35:34;2.85;;;2.30;;
78296;SDS011;67555;47.660;19.622;2023-07-31T04:38:00;2.20;;;1.85;;
78296;SDS011;67555;47.660;19.622;2023-07-31T04:40:26;3.70;;;2.25;;
78296;SDS011;67555;47.660;19.622;2023-07-31T04:42:51;2.47;;;2.13;;
78296;SDS011;67555;47.660;19.622;2023-07-31T04:45:17;3.20;;;2.00;;
78296;SDS011;67555;47.660;19.622;2023-07-31T04:47:43;3.25;;;1.83;;
78296;SDS011;67555;47.660;19.622;2023-07-31T04:50:09;5.55;;;2.10;;
78296;SDS011;67555;47.660;19.622;2023-07-31T04:52:34;4.18;;;2.15;;
78296;SDS011;67555;47.660;19.622;2023-07-31T04:55:00;3.85;;;2.05;;
78296;SDS011;67555;47.660;19.622;2023-07-31T04:57:26;2.63;;;2.15;;
78296;SDS011;67555;47.660;19.622;2023-07-31T04:59:52;2.25;;;1.80;;
78296;SDS011;67555;47.660;19.622;2023-07-31T05:02:18;3.10;;;2.13;;
78296;SDS011;67555;47.660;19.622;2023-07-31T05:04:43;3.47;;;2.13;;
78296;SDS011;67555;47.660;19.622;2023-07-31T05:07:09;2.95;;;2.08;;
78296;SDS011;67555;47.660;19.622;2023-07-31T05:09:35;3.35;;;2.22;;
78296;SDS011;67555;47.660;19.622;2023-07-31T05:12:01;2.83;;;2.17;;
78296;SDS011;67555;47.660;19.622;2023-07-31T05:14:26;3.55;;;2.38;;
78296;SDS011;67555;47.660;19.622;2023-07-31T05:16:52;7.30;;;2.47;;
78296;SDS011;67555;47.660;19.622;2023-07-31T05:19:18;3.97;;;2.53;;
78296;SDS011;67555;47.660;19.622;2023-07-31T05:21:43;2.78;;;2.33;;
78296;SDS011;67555;47.660;19.622;2023-07-31T05:24:09;3.25;;;2.10;;
78296;SDS011;67555;47.660;19.622;2023-07-31T05:26:36;4.88;;;2.58;;
78296;SDS011;67555;47.660;19.622;2023-07-31T05:29:02;4.22;;;2.60;;
78296;SDS011;67555;47.660;19.622;2023-07-31T05:31:28;3.03;;;2.50;;
78296;SDS011;67555;47.660;19.622;2023-07-31T05:33:54;3.95;;;2.38;;
78296;SDS011;67555;47.660;19.622;2023-07-31T05:36:20;3.63;;;2.50;;
78296;SDS011;67555;47.660;19.622;2023-07-31T05:38:46;3.17;;;2.30;;
78296;SDS011;67555;47.660;19.622;2023-07-31T05:41:12;3.97;;;2.30;;
78296;SDS011;67555;47.660;19.622;2023-07-31T05:43:38;2.55;;;2.08;;
78296;SDS011;67555;47.660;19.622;2023-07-31T05:46:04;2.65;;;1.92;;
78296;SDS011;67555;47.660;19.622;2023-07-31T05:48:31;3.13;;;2.13;;
78296;SDS011;67555;47.660;19.622;2023-07-31T05:50:59;2.88;;;2.15;;
78296;SDS011;67555;47.660;19.622;2023-07-31T05:53:25;4.10;;;2.42;;
78296;SDS011;67555;47.660;19.622;2023-07-31T05:55:51;3.05;;;2.13;;
78296;SDS011;67555;47.660;19.622;2023-07-31T05:58:16;2.67;;;1.90;;
78296;SDS011;67555;47.660;19.622;2023-07-31T06:00:42;3.45;;;1.92;;
78296;SDS011;67555;47.660;19.622;2023-07-31T06:03:08;2.08;;;1.80;;
78296;SDS011;67555;47.660;19.622;2023-07-31T06:05:34;2.88;;;2.08;;
78296;SDS011;67555;47.660;19.622;2023-07-31T06:07:59;2.25;;;1.80;;
78296;SDS011;67555;47.660;19.622;2023-07-31T06:10:26;2.50;;;1.98;;
78296;SDS011;67555;47.660;19.622;2023-07-31T06:12:52;2.10;;;1.70;;
78296;SDS011;67555;47.660;19.622;2023-07-31T06:15:18;2.45;;;1.80;;
78296;SDS011;67555;47.660;19.622;2023-07-31T06:17:46;3.20;;;2.05;;
78296;SDS011;67555;47.660;19.622;2023-07-31T06:20:12;2.45;;;1.63;;
78296;SDS011;67555;47.660;19.622;2023-07-31T06:22:38;1.88;;;1.58;;
78296;SDS011;67555;47.660;19.622;2023-07-31T06:25:04;1.70;;;1.48;;
78296;SDS011;67555;47.660;19.622;2023-07-31T06:27:32;2.13;;;1.75;;
78296;SDS011;67555;47.660;19.622;2023-07-31T06:29:57;2.65;;;1.40;;
78296;SDS011;67555;47.660;19.622;2023-07-31T06:32:23;1.48;;;1.20;;
78296;SDS011;67555;47.660;19.622;2023-07-31T06:34:49;1.95;;;1.33;;
78296;SDS011;67555;47.660;19.622;2023-07-31T06:37:15;2.42;;;1.60;;
78296;SDS011;67555;47.660;19.622;2023-07-31T06:39:41;2.97;;;1.67;;
78296;SDS011;67555;47.660;19.622;2023-07-31T06:42:07;1.88;;;1.60;;
78296;SDS011;67555;47.660;19.622;2023-07-31T06:44:33;2.20;;;1.60;;
78296;SDS011;67555;47.660;19.622;2023-07-31T06:46:58;2.30;;;1.60;;
78296;SDS011;67555;47.660;19.622;2023-07-31T06:49:24;1.38;;;1.27;;
78296;SDS011;67555;47.660;19.622;2023-07-31T06:51:50;1.65;;;1.40;;
78296;SDS011;67555;47.660;19.622;2023-07-31T06:54:15;2.60;;;1.23;;
78296;SDS011;67555;47.660;19.622;2023-07-31T06:56:41;1.83;;;1.33;;
78296;SDS011;67555;47.660;19.622;2023-07-31T06:59:07;1.67;;;1.40;;
78296;SDS011;67555;47.660;19.622;2023-07-31T07:01:33;2.13;;;1.50;;
78296;SDS011;67555;47.660;19.622;2023-07-31T07:03:58;4.18;;;1.05;;
78296;SDS011;67555;47.660;19.622;2023-07-31T07:06:24;2.03;;;1.30;;
78296;SDS011;67555;47.660;19.622;2023-07-31T07:08:50;1.08;;;0.82;;
78296;SDS011;67555;47.660;19.622;2023-07-31T07:11:15;2.05;;;1.45;;
78296;SDS011;67555;47.660;19.622;2023-07-31T07:13:41;1.30;;;1.08;;
78296;SDS011;67555;47.660;19.622;2023-07-31T07:16:07;1.42;;;1.27;;
78296;SDS011;67555;47.660;19.622;2023-07-31T07:18:33;2.97;;;2.05;;
78296;SDS011;67555;47.660;19.622;2023-07-31T07:20:58;1.92;;;1.33;;
78296;SDS011;67555;47.660;19.622;2023-07-31T07:23:26;1.92;;;1.45;;
78296;SDS011;67555;47.660;19.622;2023-07-31T07:25:52;1.80;;;1.30;;
78296;SDS011;67555;47.660;19.622;2023-07-31T07:28:18;1.42;;;1.25;;
78296;SDS011;67555;47.660;19.622;2023-07-31T07:30:43;1.25;;;1.15;;
78296;SDS011;67555;47.660;19.622;2023-07-31T07:33:09;6.22;;;1.85;;
78296;SDS011;67555;47.660;19.622;2023-07-31T07:35:35;3.13;;;1.38;;
78296;SDS011;67555;47.660;19.622;2023-07-31T07:38:02;1.30;;;1.02;;
78296;SDS011;67555;47.660;19.622;2023-07-31T07:40:28;2.40;;;1.77;;
78296;SDS011;67555;47.660;19.622;2023-07-31T07:42:54;1.45;;;1.25;;
78296;SDS011;67555;47.660;19.622;2023-07-31T07:45:20;1.08;;;1.02;;
78296;SDS011;67555;47.660;19.622;2023-07-31T07:47:45;3.00;;;1.30;;
78296;SDS011;67555;47.660;19.622;2023-07-31T07:50:11;1.23;;;1.13;;
78296;SDS011;67555;47.660;19.622;2023-07-31T07:52:37;1.75;;;1.35;;
78296;SDS011;67555;47.660;19.622;2023-07-31T07:55:03;1.05;;;0.95;;
78296;SDS011;67555;47.660;19.622;2023-07-31T07:57:29;4.65;;;1.33;;
78296;SDS011;67555;47.660;19.622;2023-07-31T07:59:55;1.50;;;1.35;;
78296;SDS011;67555;47.660;19.622;2023-07-31T08:02:21;1.85;;;1.10;;
78296;SDS011;67555;47.660;19.622;2023-07-31T08:04:47;1.92;;;1.30;;
78296;SDS011;67555;47.660;19.622;2023-07-31T08:07:14;1.48;;;1.20;;
78296;SDS011;67555;47.660;19.622;2023-07-31T08:09:40;2.03;;;1.65;;
78296;SDS011;67555;47.660;19.622;2023-07-31T08:12:06;1.20;;;1.10;;
78296;SDS011;67555;47.660;19.622;2023-07-31T08:14:32;1.80;;;1.35;;
78296;SDS011;67555;47.660;19.622;2023-07-31T08:16:58;1.05;;;1.05;;
78296;SDS011;67555;47.660;19.622;2023-07-31T08:19:24;1.92;;;1.30;;
78296;SDS011;67555;47.660;19.622;2023-07-31T08:21:50;1.75;;;1.15;;
78296;SDS011;67555;47.660;19.622;2023-07-31T08:24:15;1.67;;;1.30;;
78296;SDS011;67555;47.660;19.622;2023-07-31T08:26:41;0.98;;;0.90;;
78296;SDS011;67555;47.660;19.622;2023-07-31T08:29:07;2.72;;;1.20;;
78296;SDS011;67555;47.660;19.622;2023-07-31T08:31:33;1.23;;;0.60;;
78296;SDS011;67555;47.660;19.622;2023-07-31T08:33:59;1.70;;;1.13;;
78296;SDS011;67555;47.660;19.622;2023-07-31T08:36:26;0.77;;;0.77;;
78296;SDS011;67555;47.660;19.622;2023-07-31T08:38:51;1.25;;;1.13;;
78296;SDS011;67555;47.660;19.622;2023-07-31T08:41:18;1.55;;;0.73;;
78296;SDS011;67555;47.660;19.622;2023-07-31T08:43:49;4.28;;;1.40;;
78296;SDS011;67555;47.660;19.622;2023-07-31T08:46:16;0.63;;;0.63;;
78296;SDS011;67555;47.660;19.622;2023-07-31T08:48:43;1.42;;;0.90;;
78296;SDS011;67555;47.660;19.622;2023-07-31T08:51:10;1.90;;;0.98;;
78296;SDS011;67555;47.660;19.622;2023-07-31T08:53:36;1.90;;;1.13;;
78296;SDS011;67555;47.660;19.622;2023-07-31T08:56:02;2.10;;;1.10;;
78296;SDS011;67555;47.660;19.622;2023-07-31T08:58:31;1.30;;;1.13;;
78296;SDS011;67555;47.660;19.622;2023-07-31T09:00:58;2.63;;;1.10;;
78296;SDS011;67555;47.660;19.622;2023-07-31T09:03:28;1.38;;;1.08;;
78296;SDS011;67555;47.660;19.622;2023-07-31T09:05:58;0.90;;;0.85;;
78296;SDS011;67555;47.660;19.622;2023-07-31T09:08:25;1.42;;;0.90;;
78296;SDS011;67555;47.660;19.622;2023-07-31T09:10:56;1.40;;;1.10;;
78296;SDS011;67555;47.660;19.622;2023-07-31T09:13:26;3.10;;;1.23;;
78296;SDS011;67555;47.660;19.622;2023-07-31T09:15:53;2.03;;;1.15;;
78296;SDS011;67555;47.660;19.622;2023-07-31T09:18:19;1.58;;;1.20;;
78296;SDS011;67555;47.660;19.622;2023-07-31T09:20:59;2.42;;;1.08;;
78296;SDS011;67555;47.660;19.622;2023-07-31T09:23:26;1.20;;;1.10;;
78296;SDS011;67555;47.660;19.622;2023-07-31T09:26:09;1.67;;;1.02;;
78296;SDS011;67555;47.660;19.622;2023-07-31T09:28:35;0.80;;;0.80;;
78296;SDS011;67555;47.660;19.622;2023-07-31T09:31:01;0.63;;;0.63;;
78296;SDS011;67555;47.660;19.622;2023-07-31T09:33:27;1.35;;;1.20;;
78296;SDS011;67555;47.660;19.622;2023-07-31T09:35:53;1.38;;;1.02;;
78296;SDS011;67555;47.660;19.622;2023-07-31T09:38:18;2.30;;;1.50;;
78296;SDS011;67555;47.660;19.622;2023-07-31T09:40:45;2.00;;;1.00;;
78296;SDS011;67555;47.660;19.622;2023-07-31T09:43:13;1.95;;;1.20;;
78296;SDS011;67555;47.660;19.622;2023-07-31T09:45:43;1.52;;;1.23;;
78296;SDS011;67555;47.660;19.622;2023-07-31T09:48:14;1.05;;;0.95;;
78296;SDS011;67555;47.660;19.622;2023-07-31T09:50:42;1.42;;;1.10;;
78296;SDS011;67555;47.660;19.622;2023-07-31T09:53:09;3.47;;;1.38;;
78296;SDS011;67555;47.660;19.622;2023-07-31T09:55:35;1.25;;;1.08;;
78296;SDS011;67555;47.660;19.622;2023-07-31T09:58:06;1.65;;;1.40;;
78296;SDS011;67555;47.660;19.622;2023-07-31T10:00:33;1.42;;;1.20;;
78296;SDS011;67555;47.660;19.622;2023-07-31T10:03:00;1.60;;;1.30;;
78296;SDS011;67555;47.660;19.622;2023-07-31T10:05:31;5.75;;;1.58;;
78296;SDS011;67555;47.660;19.622;2023-07-31T10:08:01;6.78;;;1.65;;
78296;SDS011;67555;47.660;19.622;2023-07-31T10:10:27;1.33;;;1.00;;
78296;SDS011;67555;47.660;19.622;2023-07-31T10:12:53;1.65;;;1.40;;
78296;SDS011;67555;47.660;19.622;2023-07-31T10:17:47;2.35;;;1.30;;
78296;SDS011;67555;47.660;19.622;2023-07-31T10:20:14;1.58;;;1.20;;
78296;SDS011;67555;47.660;19.622;2023-07-31T10:22:43;2.30;;;1.30;;
78296;SDS011;67555;47.660;19.622;2023-07-31T10:25:12;6.10;;;1.35;;
78296;SDS011;67555;47.660;19.622;2023-07-31T10:27:40;1.10;;;1.05;;
78296;SDS011;67555;47.660;19.622;2023-07-31T10:30:07;9.98;;;1.63;;
78296;SDS011;67555;47.660;19.622;2023-07-31T10:32:36;1.70;;;1.30;;
78296;SDS011;67555;47.660;19.622;2023-07-31T10:35:04;1.13;;;1.00;;
78296;SDS011;67555;47.660;19.622;2023-07-31T10:40:16;1.38;;;1.25;;
78296;SDS011;67555;47.660;19.622;2023-07-31T10:42:49;1.58;;;1.10;;
78296;SDS011;67555;47.660;19.622;2023-07-31T10:45:32;2.63;;;1.10;;
78296;SDS011;67555;47.660;19.622;2023-07-31T10:48:14;2.38;;;0.90;;
78296;SDS011;67555;47.660;19.622;2023-07-31T10:50:51;1.25;;;0.90;;
78296;SDS011;67555;47.660;19.622;2023-07-31T10:53:24;1.20;;;1.05;;
78296;SDS011;67555;47.660;19.622;2023-07-31T10:56:00;1.55;;;1.20;;
78296;SDS011;67555;47.660;19.622;2023-07-31T10:58:43;2.05;;;1.02;;
78296;SDS011;67555;47.660;19.622;2023-07-31T11:01:11;2.35;;;1.20;;
78296;SDS011;67555;47.660;19.622;2023-07-31T11:03:40;1.50;;;1.30;;
78296;SDS011;67555;47.660;19.622;2023-07-31T11:06:22;1.55;;;1.17;;
78296;SDS011;67555;47.660;19.622;2023-07-31T11:08:49;1.77;;;1.35;;
78296;SDS011;67555;47.660;19.622;2023-07-31T11:11:16;1.92;;;1.08;;
78296;SDS011;67555;47.660;19.622;2023-07-31T11:13:44;1.20;;;1.08;;
78296;SDS011;67555;47.660;19.622;2023-07-31T11:16:20;2.35;;;1.30;;
78296;SDS011;67555;47.660;19.622;2023-07-31T11:18:50;1.50;;;1.25;;
78296;SDS011;67555;47.660;19.622;2023-07-31T11:21:22;2.03;;;1.20;;
78296;SDS011;67555;47.660;19.622;2023-07-31T11:23:50;2.75;;;1.48;;
78296;SDS011;67555;47.660;19.622;2023-07-31T11:26:23;1.63;;;1.20;;
78296;SDS011;67555;47.660;19.622;2023-07-31T11:28:50;1.38;;;1.05;;
78296;SDS011;67555;47.660;19.622;2023-07-31T11:31:17;2.05;;;1.17;;
78296;SDS011;67555;47.660;19.622;2023-07-31T11:33:43;2.00;;;1.17;;
78296;SDS011;67555;47.660;19.622;2023-07-31T11:36:19;1.55;;;1.40;;
78296;SDS011;67555;47.660;19.622;2023-07-31T11:38:45;2.20;;;1.40;;
78296;SDS011;67555;47.660;19.622;2023-07-31T11:41:13;1.92;;;1.40;;
78296;SDS011;67555;47.660;19.622;2023-07-31T11:43:41;1.25;;;1.15;;
78296;SDS011;67555;47.660;19.622;2023-07-31T11:46:06;1.55;;;1.20;;
78296;SDS011;67555;47.660;19.622;2023-07-31T11:48:33;7.07;;;0.95;;
78296;SDS011;67555;47.660;19.622;2023-07-31T11:51:07;2.15;;;1.45;;
78296;SDS011;67555;47.660;19.622;2023-07-31T11:56:10;5.25;;;1.60;;
78296;SDS011;67555;47.660;19.622;2023-07-31T11:58:38;1.45;;;1.08;;
78296;SDS011;67555;47.660;19.622;2023-07-31T12:01:05;1.10;;;1.00;;
78296;SDS011;67555;47.660;19.622;2023-07-31T12:03:32;2.45;;;1.30;;
78296;SDS011;67555;47.660;19.622;2023-07-31T12:05:59;1.55;;;1.30;;
78296;SDS011;67555;47.660;19.622;2023-07-31T12:08:25;1.13;;;1.02;;
78296;SDS011;67555;47.660;19.622;2023-07-31T12:10:51;1.85;;;1.40;;
78296;SDS011;67555;47.660;19.622;2023-07-31T12:13:22;1.90;;;1.25;;
78296;SDS011;67555;47.660;19.622;2023-07-31T12:15:53;1.80;;;1.25;;
78296;SDS011;67555;47.660;19.622;2023-07-31T12:18:24;2.30;;;1.40;;
78296;SDS011;67555;47.660;19.622;2023-07-31T12:20:54;1.80;;;1.25;;
78296;SDS011;67555;47.660;19.622;2023-07-31T12:23:23;1.95;;;1.30;;
78296;SDS011;67555;47.660;19.622;2023-07-31T12:26:00;2.70;;;1.33;;
78296;SDS011;67555;47.660;19.622;2023-07-31T12:28:30;3.05;;;1.33;;
78296;SDS011;67555;47.660;19.622;2023-07-31T12:30:59;2.28;;;1.27;;
78296;SDS011;67555;47.660;19.622;2023-07-31T12:33:30;2.90;;;1.30;;
78296;SDS011;67555;47.660;19.622;2023-07-31T12:35:58;2.03;;;1.45;;
78296;SDS011;67555;47.660;19.622;2023-07-31T12:38:25;2.47;;;1.33;;
78296;SDS011;67555;47.660;19.622;2023-07-31T12:40:51;1.90;;;1.25;;
78296;SDS011;67555;47.660;19.622;2023-07-31T12:43:17;1.55;;;1.30;;
78296;SDS011;67555;47.660;19.622;2023-07-31T12:45:42;5.22;;;1.50;;
78296;SDS011;67555;47.660;19.622;2023-07-31T12:48:08;5.10;;;1.77;;
78296;SDS011;67555;47.660;19.622;2023-07-31T12:50:34;2.35;;;1.45;;
78296;SDS011;67555;47.660;19.622;2023-07-31T12:53:01;1.17;;;1.08;;
78296;SDS011;67555;47.660;19.622;2023-07-31T12:55:28;2.15;;;1.25;;
78296;SDS011;67555;47.660;19.622;2023-07-31T12:57:55;1.80;;;1.38;;
78296;SDS011;67555;47.660;19.622;2023-07-31T13:00:21;2.58;;;1.42;;
78296;SDS011;67555;47.660;19.622;2023-07-31T13:02:47;1.55;;;1.30;;
78296;SDS011;67555;47.660;19.622;2023-07-31T13:05:13;2.10;;;1.23;;
78296;SDS011;67555;47.660;19.622;2023-07-31T13:07:39;2.83;;;1.33;;
78296;SDS011;67555;47.660;19.622;2023-07-31T13:10:07;2.15;;;1.30;;
78296;SDS011;67555;47.660;19.622;2023-07-31T13:12:33;1.50;;;1.23;;
78296;SDS011;67555;47.660;19.622;2023-07-31T13:14:59;1.45;;;1.25;;
78296;SDS011;67555;47.660;19.622;2023-07-31T13:17:25;1.65;;;1.20;;
78296;SDS011;67555;47.660;19.622;2023-07-31T13:19:51;1.83;;;1.27;;
78296;SDS011;67555;47.660;19.622;2023-07-31T13:22:17;1.20;;;0.95;;
78296;SDS011;67555;47.660;19.622;2023-07-31T13:24:43;1.50;;;1.33;;
78296;SDS011;67555;47.660;19.622;2023-07-31T13:27:08;1.42;;;1.05;;
78296;SDS011;67555;47.660;19.622;2023-07-31T13:29:39;1.95;;;1.20;;
78296;SDS011;67555;47.660;19.622;2023-07-31T13:32:05;1.40;;;1.13;;
78296;SDS011;67555;47.660;19.622;2023-07-31T13:34:31;1.55;;;1.35;;
78296;SDS011;67555;47.660;19.622;2023-07-31T13:36:57;2.22;;;1.83;;
78296;SDS011;67555;47.660;19.622;2023-07-31T13:39:23;2.25;;;1.23;;
78296;SDS011;67555;47.660;19.622;2023-07-31T13:41:49;3.03;;;1.60;;
78296;SDS011;67555;47.660;19.622;2023-07-31T13:44:15;1.20;;;1.10;;
78296;SDS011;67555;47.660;19.622;2023-07-31T13:46:40;3.20;;;1.45;;
78296;SDS011;67555;47.660;19.622;2023-07-31T13:49:06;1.75;;;1.00;;
78296;SDS011;67555;47.660;19.622;2023-07-31T13:51:32;1.90;;;1.00;;
78296;SDS011;67555;47.660;19.622;2023-07-31T13:53:57;1.33;;;0.95;;
78296;SDS011;67555;47.660;19.622;2023-07-31T13:56:23;1.40;;;1.30;;
78296;SDS011;67555;47.660;19.622;2023-07-31T13:58:49;1.25;;;1.15;;
78296;SDS011;67555;47.660;19.622;2023-07-31T14:01:16;1.42;;;1.20;;
78296;SDS011;67555;47.660;19.622;2023-07-31T14:03:42;2.17;;;1.35;;
78296;SDS011;67555;47.660;19.622;2023-07-31T14:06:07;2.42;;;1.10;;
78296;SDS011;67555;47.660;19.622;2023-07-31T14:08:33;1.38;;;1.10;;
78296;SDS011;67555;47.660;19.622;2023-07-31T14:10:59;1.27;;;1.05;;
78296;SDS011;67555;47.660;19.622;2023-07-31T14:13:24;1.20;;;1.10;;
78296;SDS011;67555;47.660;19.622;2023-07-31T14:15:50;2.63;;;1.63;;
78296;SDS011;67555;47.660;19.622;2023-07-31T14:18:16;3.47;;;1.50;;
78296;SDS011;67555;47.660;19.622;2023-07-31T14:20:42;1.85;;;1.33;;
78296;SDS011;67555;47.660;19.622;2023-07-31T14:23:08;1.33;;;1.23;;
78296;SDS011;67555;47.660;19.622;2023-07-31T14:25:34;1.85;;;1.45;;
78296;SDS011;67555;47.660;19.622;2023-07-31T14:27:59;1.40;;;1.20;;
78296;SDS011;67555;47.660;19.622;2023-07-31T14:30:25;4.53;;;1.10;;
78296;SDS011;67555;47.660;19.622;2023-07-31T14:32:51;1.67;;;1.27;;
78296;SDS011;67555;47.660;19.622;2023-07-31T14:35:17;2.85;;;1.33;;
78296;SDS011;67555;47.660;19.622;2023-07-31T14:37:44;2.42;;;1.52;;
78296;SDS011;67555;47.660;19.622;2023-07-31T14:40:12;3.00;;;1.60;;
78296;SDS011;67555;47.660;19.622;2023-07-31T14:42:38;2.05;;;1.40;;
78296;SDS011;67555;47.660;19.622;2023-07-31T14:45:05;1.30;;;1.00;;